Grizzly Air Cargo 5368


PANC
Ted Stevens Anchorage International Airport
Anchorage, Alaska, US
PADU
Unalaska Airport
Unalaska, Alaska, US

Activity Log

Date Flight Route Aircraft Duration
09/06/2020 GRZ5368 DUT B722 2h 06m
12/14/2019 GRZ5368 N0346A160 TURNA8 NAPTO V388 ENA/N0445F360 J115 BINAL/N0428F320 J115 DUT B738 2h 16m
11/27/2019 GRZ5368 TED J115 DUT B722 1h 57m

Route Details

Aircraft Information
Primary: Boeing 727-200F
Backup: Boeing 737-800BCF
Route Data
Distance: 685nm
Sched. Duration: 1h 44m
Avg. Duration: 1h 93m (+49m)
Times Flown: 3
Recm'd Route: TED J115 DUT
Planned Altitude: 34,000ft
Origin Wx: PANC 291753Z 00000KT 5SM BR BKN008 M05/M06 A2996 RMK AO2 SLP147 I6000 T10501061 11039 21061 55009
Dest. Wx: PADU 291756Z 10020G24KT 4SM -RA BR BKN015 OVC020 08/06 A2968 RMK AO2 PK WND 07026/1745 SLP054 OBS PK WND 08032/1754 VIS SW 3 BLK WTR NW P0002 60005 T00830056 10083 20072 58042
Notes:

Financial History
Total Freight: 110,660lbs
Average Load: 36,887lbs/flt
Fuel Used: 47,121lbs
Avg. Fuel Used: 15,707lbs/flt
Fuel Expense: $61,257
Avg. Fuel Expense: $20,419
Avg. Fuel Cost: $1.30/lbs
Total Gross Income: $261,158
Pilot Pay: $727
Total Expenses: $28,361
Total Revenue: $170,014
Average Revenue: $87,052.53